Time;durP1;ratioP1;P1;durP2;ratioP2;P2;SDS_P1;SDS_P2;PMS_P1;PMS_P2;Temp;Humidity;BMP_temperature;BMP_pressure;BME280_temperature;BME280_humidity;BME280_pressure;Samples;Min_cycle;Max_cycle;Signal;HPM_P1;HPM_P2
2024/03/12 00:01:09;;;;;;;27.15;24.50;;;7.00;99.90;;;;;;4956177;28;20042;-72
2024/03/12 00:03:42;;;;;;;31.33;25.00;;;7.00;99.90;;;;;;4952062;28;20055;-70
2024/03/12 00:06:11;;;;;;;26.92;24.33;;;7.00;99.90;;;;;;4944704;28;20129;-71
2024/03/12 00:08:39;;;;;;;27.45;24.77;;;7.00;99.90;;;;;;4939516;28;20185;-70
2024/03/12 00:11:07;;;;;;;26.00;23.30;;;7.10;99.90;;;;;;4951984;28;20109;-69
2024/03/12 00:13:35;;;;;;;26.08;23.50;;;7.20;99.90;;;;;;4944467;28;20050;-70
2024/03/12 00:16:03;;;;;;;25.92;23.23;;;7.30;99.90;;;;;;4946918;28;20053;-69
2024/03/12 00:18:32;;;;;;;27.33;24.50;;;7.30;99.90;;;;;;4953468;28;20055;-69
2024/03/12 00:21:03;;;;;;;26.02;23.73;;;7.30;99.90;;;;;;4966933;28;20134;-68
2024/03/12 00:23:30;;;;;;;25.02;22.52;;;7.30;99.90;;;;;;4972161;28;20054;-70
2024/03/12 00:25:57;;;;;;;25.42;23.13;;;7.40;99.90;;;;;;4956615;28;20129;-70
2024/03/12 00:28:24;;;;;;;25.90;23.15;;;7.20;99.90;;;;;;4939879;28;20050;-69
2024/03/12 00:30:53;;;;;;;26.65;22.98;;;7.30;99.90;;;;;;4953312;28;20066;-70
2024/03/12 00:33:21;;;;;;;26.20;23.58;;;7.30;99.90;;;;;;4957717;28;20046;-69
2024/03/12 00:35:48;;;;;;;28.35;25.45;;;7.40;99.90;;;;;;4946272;28;20043;-69
2024/03/12 00:38:17;;;;;;;33.28;28.23;;;7.30;99.90;;;;;;4954118;28;20113;-72
2024/03/12 00:40:47;;;;;;;30.90;27.70;;;7.40;99.90;;;;;;4972044;28;20088;-70
2024/03/12 00:43:15;;;;;;;31.80;26.15;;;7.20;99.90;;;;;;4957015;28;20046;-71
2024/03/12 00:45:42;;;;;;;31.42;27.88;;;7.20;99.90;;;;;;4962924;28;20539;-70
2024/03/12 00:48:12;;;;;;;29.13;25.98;;;7.20;99.90;;;;;;4965516;28;20066;-70
2024/03/12 00:50:42;;;;;;;28.27;25.58;;;7.20;99.90;;;;;;4956287;28;20049;-70
2024/03/12 00:53:11;;;;;;;26.98;24.30;;;7.20;99.90;;;;;;4953488;28;20051;-69
2024/03/12 00:55:40;;;;;;;24.90;22.75;;;7.20;99.90;;;;;;4950467;28;20046;-69
2024/03/12 00:58:12;;;;;;;25.75;23.35;;;7.20;99.90;;;;;;4949831;28;20363;-70
2024/03/12 01:00:40;;;;;;;24.52;22.08;;;7.20;99.90;;;;;;4949427;28;20054;-70
2024/03/12 01:03:08;;;;;;;23.40;21.20;;;7.20;99.90;;;;;;4963459;28;20483;-69
2024/03/12 01:05:37;;;;;;;22.65;20.65;;;7.10;99.90;;;;;;4944957;28;20055;-70
2024/03/12 01:08:06;;;;;;;23.52;21.48;;;7.10;99.90;;;;;;4953762;28;20049;-69
2024/03/12 01:10:34;;;;;;;22.80;20.80;;;7.00;99.90;;;;;;4950837;28;20047;-70
2024/03/12 01:13:05;;;;;;;23.00;20.85;;;7.00;99.90;;;;;;4952060;28;20058;-70
2024/03/12 01:15:34;;;;;;;24.67;22.23;;;7.00;99.90;;;;;;4954840;28;20275;-70
2024/03/12 01:18:07;;;;;;;23.83;21.63;;;7.10;99.90;;;;;;4952637;28;20055;-68
2024/03/12 01:20:36;;;;;;;23.77;21.83;;;7.20;99.90;;;;;;4933653;28;20177;-70
2024/03/12 01:23:04;;;;;;;24.08;21.95;;;7.00;99.90;;;;;;4935071;28;20074;-70
2024/03/12 01:25:34;;;;;;;25.05;22.45;;;6.90;99.90;;;;;;4963087;28;20888;-70
2024/03/12 01:28:05;;;;;;;23.95;21.65;;;6.90;99.90;;;;;;4951072;28;20055;-69
2024/03/12 01:30:33;;;;;;;25.00;22.60;;;6.90;99.90;;;;;;4963969;28;20051;-69
2024/03/12 01:33:02;;;;;;;25.42;22.80;;;6.90;99.90;;;;;;4954114;28;20220;-70
2024/03/12 01:35:30;;;;;;;26.10;23.50;;;6.90;99.90;;;;;;4949536;28;20042;-70
2024/03/12 01:37:58;;;;;;;25.08;22.75;;;7.00;99.90;;;;;;4936330;28;20604;-69
2024/03/12 01:40:26;;;;;;;25.42;22.73;;;6.90;99.90;;;;;;4957521;28;26888;-69
2024/03/12 01:42:56;;;;;;;24.95;22.27;;;6.80;99.90;;;;;;4970671;28;20089;-69
2024/03/12 01:45:25;;;;;;;23.60;21.52;;;6.80;99.90;;;;;;4966541;28;20156;-68
2024/03/12 01:47:57;;;;;;;23.88;21.58;;;6.80;99.90;;;;;;4972522;28;20057;-70
2024/03/12 01:50:27;;;;;;;24.85;22.58;;;6.70;99.90;;;;;;4980720;28;20070;-68
2024/03/12 01:52:58;;;;;;;24.58;21.92;;;6.70;99.90;;;;;;4987075;28;20053;-69
2024/03/12 01:55:26;;;;;;;24.33;22.23;;;6.70;99.90;;;;;;4973075;28;20070;-68
2024/03/12 01:57:54;;;;;;;23.63;21.50;;;6.70;99.90;;;;;;4954086;28;20058;-70
2024/03/12 02:00:22;;;;;;;23.30;21.00;;;6.70;99.90;;;;;;4959696;28;20113;-70
2024/03/12 02:02:52;;;;;;;22.42;20.42;;;6.70;99.90;;;;;;4972001;28;20061;-68
2024/03/12 02:05:22;;;;;;;21.63;19.92;;;6.70;99.90;;;;;;4961638;28;20050;-69
2024/03/12 02:07:53;;;;;;;22.40;20.35;;;6.60;99.90;;;;;;4957414;28;20034;-70
2024/03/12 02:10:20;;;;;;;20.70;18.85;;;6.60;99.90;;;;;;4951703;28;20050;-68
2024/03/12 02:12:48;;;;;;;21.75;19.95;;;6.50;99.90;;;;;;4969054;28;20054;-69
2024/03/12 02:15:22;;;;;;;20.92;19.02;;;6.50;99.90;;;;;;4948770;28;20058;-70
2024/03/12 02:17:53;;;;;;;20.10;18.20;;;6.50;99.90;;;;;;4973119;28;20070;-70
2024/03/12 02:20:21;;;;;;;20.77;18.88;;;6.50;99.90;;;;;;4966266;28;20055;-70
2024/03/12 02:22:55;;;;;;;20.13;18.20;;;6.40;99.90;;;;;;4987613;28;20131;-69
2024/03/12 02:25:22;;;;;;;19.77;18.10;;;6.50;99.90;;;;;;4960298;28;20073;-69
2024/03/12 02:27:52;;;;;;;21.17;18.98;;;6.50;99.90;;;;;;4959115;28;20046;-69
2024/03/12 02:30:20;;;;;;;20.30;18.23;;;6.50;99.90;;;;;;4966303;28;20062;-69
2024/03/12 02:32:49;;;;;;;19.33;17.75;;;6.60;99.90;;;;;;4973141;28;20647;-70
2024/03/12 02:35:16;;;;;;;21.38;19.58;;;6.60;99.90;;;;;;4962073;28;20132;-69
2024/03/12 02:37:44;;;;;;;20.95;18.92;;;6.60;99.90;;;;;;4957472;28;20519;-70
2024/03/12 02:40:12;;;;;;;21.13;19.27;;;6.70;99.90;;;;;;4967992;28;20096;-69
2024/03/12 02:42:41;;;;;;;21.25;19.45;;;6.70;99.90;;;;;;4972713;28;20054;-71
2024/03/12 02:45:14;;;;;;;21.88;19.98;;;6.90;99.90;;;;;;4964323;28;20135;-70
2024/03/12 02:47:43;;;;;;;22.70;20.73;;;6.90;99.90;;;;;;4968267;28;20602;-70
2024/03/12 02:50:11;;;;;;;22.80;20.90;;;7.00;99.90;;;;;;4970453;28;20046;-70
2024/03/12 02:52:38;;;;;;;21.45;19.52;;;6.90;99.90;;;;;;4976346;28;20045;-70
2024/03/12 02:55:06;;;;;;;22.55;20.40;;;6.90;99.90;;;;;;4973317;28;20062;-70
2024/03/12 02:57:34;;;;;;;22.92;20.35;;;7.00;99.90;;;;;;4969040;28;20142;-71
2024/03/12 03:00:11;;;;;;;23.50;21.33;;;6.90;99.90;;;;;;4974204;28;20062;-70
2024/03/12 03:02:41;;;;;;;22.73;20.48;;;6.90;99.90;;;;;;4955646;28;20622;-69
2024/03/12 03:05:12;;;;;;;22.30;19.95;;;6.90;99.90;;;;;;4964609;28;20051;-68
2024/03/12 03:07:41;;;;;;;21.73;19.83;;;6.90;99.90;;;;;;4961181;28;20815;-70
2024/03/12 03:10:10;;;;;;;22.30;20.13;;;6.80;99.90;;;;;;4969489;28;20051;-69
2024/03/12 03:12:43;;;;;;;21.17;19.25;;;6.90;99.90;;;;;;4971489;28;20034;-70
2024/03/12 03:15:11;;;;;;;21.48;19.45;;;6.80;99.90;;;;;;4961051;28;20051;-70
2024/03/12 03:17:42;;;;;;;22.85;20.60;;;6.90;99.90;;;;;;4970497;28;20645;-71
2024/03/12 03:20:14;;;;;;;21.13;19.35;;;6.90;99.90;;;;;;4967689;28;20050;-70
2024/03/12 03:22:42;;;;;;;21.27;19.20;;;6.90;99.90;;;;;;4969127;28;20049;-69
2024/03/12 03:25:11;;;;;;;21.10;18.98;;;6.90;99.90;;;;;;4950632;28;20093;-69
2024/03/12 03:27:39;;;;;;;21.17;19.23;;;6.90;99.90;;;;;;4971456;28;20132;-69
2024/03/12 03:30:09;;;;;;;22.58;20.50;;;6.90;99.90;;;;;;4974844;28;20066;-69
2024/03/12 03:32:37;;;;;;;23.00;20.70;;;6.90;99.90;;;;;;4986816;28;20072;-69
2024/03/12 03:35:05;;;;;;;21.50;19.60;;;7.00;99.90;;;;;;4969480;28;20832;-70
2024/03/12 03:37:35;;;;;;;22.60;20.75;;;7.10;99.90;;;;;;4966639;28;20092;-71
2024/03/12 03:40:17;;;;;;;22.60;20.70;;;7.10;99.90;;;;;;4973839;28;20047;-69
2024/03/12 03:42:44;;;;;;;22.42;20.42;;;7.10;99.90;;;;;;4968331;28;20845;-70
2024/03/12 03:45:11;;;;;;;22.63;20.48;;;7.20;99.90;;;;;;4965514;28;20050;-70
2024/03/12 03:47:38;;;;;;;23.58;21.38;;;7.20;99.90;;;;;;4970871;28;20069;-71
2024/03/12 03:50:07;;;;;;;23.20;21.13;;;7.20;99.90;;;;;;4971207;28;20054;-71
2024/03/12 03:52:34;;;;;;;22.98;21.02;;;7.20;99.90;;;;;;4967687;28;20102;-69
2024/03/12 03:57:53;;;;;;;22.30;20.35;;;7.10;99.90;;;;;;4992005;28;20045;-70
2024/03/12 04:00:28;;;;;;;23.85;21.65;;;7.10;99.90;;;;;;4959596;28;20057;-71
2024/03/12 04:02:56;;;;;;;;;;;7.10;99.90;;;;;;4973245;28;20046;-70
2024/03/12 04:05:23;;;;;;;23.13;20.50;;;7.10;99.90;;;;;;4966439;28;19925;-70
2024/03/12 04:07:51;;;;;;;22.48;20.38;;;7.20;99.90;;;;;;4989591;28;20108;-71
2024/03/12 04:10:18;;;;;;;23.48;21.20;;;7.20;99.90;;;;;;4976769;28;20042;-69
2024/03/12 04:12:45;;;;;;;23.73;21.55;;;7.20;99.90;;;;;;4976228;28;20070;-69
2024/03/12 04:15:13;;;;;;;23.42;21.33;;;7.20;99.90;;;;;;4975243;28;20046;-69
2024/03/12 04:17:43;;;;;;;23.23;21.02;;;7.30;99.90;;;;;;4972781;28;20095;-69
2024/03/12 04:20:11;;;;;;;23.55;21.35;;;7.30;99.90;;;;;;4973719;28;20055;-71
2024/03/12 04:22:39;;;;;;;24.80;22.55;;;7.40;99.90;;;;;;4954818;28;20042;-70
2024/03/12 04:25:07;;;;;;;25.85;23.55;;;7.40;99.90;;;;;;4976438;28;20046;-71
2024/03/12 04:27:38;;;;;;;25.58;23.27;;;7.40;99.90;;;;;;4971011;28;20144;-70
2024/03/12 04:30:06;;;;;;;25.25;23.15;;;7.40;99.90;;;;;;4957708;28;20054;-71
2024/03/12 04:32:33;;;;;;;27.02;24.50;;;7.40;99.90;;;;;;4973444;28;20312;-71
2024/03/12 04:35:04;;;;;;;25.48;23.08;;;7.50;99.90;;;;;;4967643;28;20579;-70
2024/03/12 04:37:32;;;;;;;26.20;23.80;;;7.40;99.90;;;;;;4969576;28;20751;-70
2024/03/12 04:40:06;;;;;;;26.17;23.45;;;7.40;99.90;;;;;;4969131;28;20054;-70
2024/03/12 04:42:37;;;;;;;;;;;7.30;99.90;;;;;;4972492;28;21008;-71
2024/03/12 04:45:06;;;;;;;30.27;24.65;;;7.30;99.90;;;;;;4974110;28;19922;-71
2024/03/12 04:47:37;;;;;;;28.23;25.35;;;7.30;99.90;;;;;;4953015;28;20046;-70
2024/03/12 04:50:07;;;;;;;29.27;26.38;;;7.30;99.90;;;;;;4974101;28;20047;-70
2024/03/12 04:52:35;;;;;;;33.30;29.60;;;7.30;99.90;;;;;;4970397;28;20165;-69
2024/03/12 04:55:04;;;;;;;34.70;30.52;;;7.40;99.90;;;;;;4970990;28;20511;-69
2024/03/12 04:57:35;;;;;;;33.65;30.00;;;7.40;99.90;;;;;;4964111;28;20047;-71
2024/03/12 05:00:13;;;;;;;34.95;30.00;;;7.50;99.90;;;;;;4971670;28;20144;-69
2024/03/12 05:02:42;;;;;;;31.35;27.95;;;7.50;99.90;;;;;;4971155;28;20054;-70
2024/03/12 05:05:10;;;;;;;30.13;26.98;;;7.60;99.90;;;;;;4955444;28;20117;-70
2024/03/12 05:07:38;;;;;;;31.77;26.73;;;7.50;99.90;;;;;;4966055;28;20060;-70
2024/03/12 05:10:06;;;;;;;29.02;26.15;;;7.50;99.90;;;;;;4977400;28;20042;-71
2024/03/12 05:12:32;;;;;;;28.75;26.15;;;7.50;99.90;;;;;;4969047;28;20059;-68
2024/03/12 05:15:00;;;;;;;28.83;26.17;;;7.50;99.90;;;;;;4969777;28;20193;-70
2024/03/12 05:17:26;;;;;;;29.98;26.98;;;7.50;99.90;;;;;;4970379;28;20150;-70
2024/03/12 05:19:53;;;;;;;29.17;26.27;;;7.40;99.90;;;;;;4970432;28;20065;-71
2024/03/12 05:22:22;;;;;;;29.23;26.30;;;7.40;99.90;;;;;;4970250;28;20059;-69
2024/03/12 05:24:50;;;;;;;29.35;26.52;;;7.40;99.90;;;;;;4970945;28;20113;-70
2024/03/12 05:27:32;;;;;;;28.90;25.98;;;7.50;99.90;;;;;;4974346;28;20050;-71
2024/03/12 05:30:09;;;;;;;28.92;25.90;;;7.50;99.90;;;;;;4977421;28;20101;-70
2024/03/12 05:32:46;;;;;;;30.27;27.30;;;7.50;99.90;;;;;;4957813;28;20140;-70
2024/03/12 05:35:21;;;;;;;29.58;26.77;;;7.50;99.90;;;;;;4975531;28;20042;-70
2024/03/12 05:38:22;;;;;;;29.88;26.52;;;7.40;99.90;;;;;;4980199;28;20069;-70
2024/03/12 05:41:04;;;;;;;29.88;26.77;;;7.50;99.90;;;;;;4984152;28;20583;-70
2024/03/12 05:49:03;;;;;;;35.53;28.20;;;7.40;99.90;;;;;;4974170;28;20069;-70
2024/03/12 05:51:32;;;;;;;33.08;28.75;;;7.30;99.90;;;;;;4965976;28;20077;-69
2024/03/12 05:53:59;;;;;;;32.38;28.05;;;7.30;99.90;;;;;;4970292;28;20046;-71
2024/03/12 05:56:27;;;;;;;34.05;30.25;;;7.40;99.90;;;;;;4966929;28;20046;-70
2024/03/12 05:58:54;;;;;;;34.85;28.90;;;7.40;99.90;;;;;;4967455;28;20707;-70
2024/03/12 06:01:23;;;;;;;37.17;29.88;;;7.50;99.90;;;;;;4995857;28;20054;-69
2024/03/12 06:03:53;;;;;;;36.65;31.65;;;7.50;99.90;;;;;;4983563;28;20054;-69
2024/03/12 06:06:21;;;;;;;33.35;29.83;;;7.50;99.90;;;;;;4964450;28;20077;-71
2024/03/12 06:08:48;;;;;;;36.50;28.27;;;7.50;99.90;;;;;;4969036;28;20522;-69
2024/03/12 06:11:16;;;;;;;36.63;31.38;;;7.50;99.90;;;;;;4972552;28;20049;-69
2024/03/12 06:13:44;;;;;;;46.97;33.45;;;7.50;99.90;;;;;;4970156;28;20652;-69
2024/03/12 06:16:11;;;;;;;44.70;33.20;;;7.40;99.90;;;;;;4969841;28;20059;-70
2024/03/12 06:18:39;;;;;;;51.65;37.42;;;7.50;99.90;;;;;;4965812;28;20137;-69
2024/03/12 06:21:07;;;;;;;60.17;40.35;;;7.50;99.90;;;;;;4968963;28;20149;-69
2024/03/12 06:23:34;;;;;;;59.58;40.55;;;7.50;99.90;;;;;;4963015;28;20046;-69
2024/03/12 06:26:02;;;;;;;60.85;40.20;;;7.60;99.90;;;;;;4969257;28;21455;-69
2024/03/12 06:28:31;;;;;;;56.28;39.08;;;7.60;99.90;;;;;;4966718;28;20582;-69
2024/03/12 06:30:59;;;;;;;63.63;40.65;;;7.60;99.90;;;;;;4951647;28;20044;-70
2024/03/12 06:33:26;;;;;;;66.88;41.13;;;7.70;99.90;;;;;;4950070;28;20054;-69
2024/03/12 06:35:54;;;;;;;68.50;42.13;;;7.60;99.90;;;;;;4957480;28;20077;-69
2024/03/12 06:38:21;;;;;;;65.57;40.00;;;7.60;99.90;;;;;;4968604;28;20613;-71
2024/03/12 06:40:48;;;;;;;65.20;41.92;;;7.70;99.90;;;;;;4947545;28;20831;-70
2024/03/12 06:43:17;;;;;;;70.03;40.92;;;7.70;99.90;;;;;;4984328;28;20057;-70
2024/03/12 06:45:46;;;;;;;63.30;39.67;;;7.60;99.90;;;;;;4963066;28;20042;-70
2024/03/12 06:48:17;;;;;;;73.68;40.25;;;7.60;99.90;;;;;;4972155;28;20104;-70
2024/03/12 06:50:45;;;;;;;66.65;39.47;;;7.60;99.90;;;;;;4964480;28;20154;-69
2024/03/12 06:53:14;;;;;;;67.32;40.90;;;7.60;99.90;;;;;;4971171;28;20050;-69
2024/03/12 06:55:41;;;;;;;70.88;39.92;;;7.60;99.90;;;;;;4941842;28;20684;-68
2024/03/12 06:58:11;;;;;;;68.03;39.70;;;7.60;99.90;;;;;;4953332;28;20753;-70
2024/03/12 07:00:44;;;;;;;70.82;40.53;;;7.60;99.90;;;;;;4946951;28;20049;-69
2024/03/12 07:03:16;;;;;;;67.70;39.72;;;7.50;99.90;;;;;;4964928;28;20053;-70
2024/03/12 07:05:46;;;;;;;74.63;41.55;;;7.60;99.90;;;;;;4957332;28;20542;-70
2024/03/12 07:08:17;;;;;;;78.68;42.17;;;7.60;99.90;;;;;;4952140;28;20539;-70
2024/03/12 07:10:45;;;;;;;79.53;42.97;;;7.50;99.90;;;;;;4961051;28;20049;-71
2024/03/12 07:13:12;;;;;;;86.05;43.15;;;7.60;99.90;;;;;;4968785;28;20165;-70
2024/03/12 07:15:41;;;;;;;82.30;42.72;;;7.60;99.90;;;;;;4966805;28;20484;-69
2024/03/12 07:18:08;;;;;;;75.45;40.47;;;7.60;99.90;;;;;;4969259;28;20062;-70
2024/03/12 07:20:36;;;;;;;76.10;40.10;;;7.60;99.90;;;;;;4969712;28;20050;-69
2024/03/12 07:23:04;;;;;;;81.43;44.25;;;7.60;99.90;;;;;;4953958;28;20054;-70
2024/03/12 07:25:32;;;;;;;76.80;41.70;;;7.50;99.90;;;;;;4967194;28;20527;-69
2024/03/12 07:28:05;;;;;;;78.45;39.53;;;7.60;99.90;;;;;;4970801;28;20573;-69
2024/03/12 07:30:35;;;;;;;67.10;34.53;;;7.60;99.90;;;;;;4948827;28;20113;-69
2024/03/12 07:33:05;;;;;;;69.45;40.25;;;7.50;99.90;;;;;;4973201;28;20072;-70
2024/03/12 07:35:33;;;;;;;77.13;40.55;;;7.50;99.90;;;;;;4968982;28;20124;-68
2024/03/12 07:38:03;;;;;;;74.13;40.67;;;7.50;99.90;;;;;;4978495;28;20742;-69
2024/03/12 07:40:31;;;;;;;73.90;40.45;;;7.60;99.90;;;;;;4967643;28;20042;-70
2024/03/12 07:42:59;;;;;;;81.85;44.75;;;7.60;99.90;;;;;;4966374;28;20123;-70
2024/03/12 07:45:27;;;;;;;81.20;40.45;;;7.70;99.90;;;;;;4954582;28;20141;-70
2024/03/12 07:47:55;;;;;;;80.55;41.50;;;7.70;99.90;;;;;;4964355;28;20140;-70
2024/03/12 07:50:28;;;;;;;74.45;42.10;;;7.70;99.90;;;;;;4969778;28;20121;-70
2024/03/12 07:52:56;;;;;;;76.90;42.45;;;7.70;99.90;;;;;;4953708;28;20050;-69
2024/03/12 07:55:24;;;;;;;74.15;40.58;;;7.70;99.90;;;;;;4976859;28;20045;-70
2024/03/12 07:57:51;;;;;;;69.97;39.58;;;7.70;99.90;;;;;;4966531;28;20063;-70
2024/03/12 08:00:19;;;;;;;73.15;40.05;;;7.60;99.90;;;;;;4973265;28;20144;-69
2024/03/12 08:02:46;;;;;;;70.95;38.30;;;7.60;99.90;;;;;;4962381;28;20101;-69
2024/03/12 08:05:14;;;;;;;70.28;39.17;;;7.60;99.90;;;;;;4962623;28;20061;-70
2024/03/12 08:07:44;;;;;;;69.60;38.03;;;7.60;99.90;;;;;;4967904;28;20043;-69
2024/03/12 08:10:12;;;;;;;74.93;39.38;;;7.70;99.90;;;;;;4972726;28;20038;-70
2024/03/12 08:12:40;;;;;;;60.38;36.65;;;7.80;99.90;;;;;;4966913;28;20054;-68
2024/03/12 08:15:13;;;;;;;58.53;38.40;;;7.80;99.90;;;;;;4968979;28;20041;-69
2024/03/12 08:17:40;;;;;;;62.35;36.40;;;7.80;99.90;;;;;;4972877;28;20144;-69
2024/03/12 08:20:13;;;;;;;65.97;36.40;;;7.80;99.90;;;;;;4969627;28;20054;-70
2024/03/12 08:22:40;;;;;;;60.97;37.65;;;7.80;99.90;;;;;;4963076;28;20615;-68
2024/03/12 08:25:10;;;;;;;64.88;36.63;;;7.80;99.90;;;;;;4958159;28;20699;-70
2024/03/12 08:27:41;;;;;;;62.03;37.75;;;7.80;99.90;;;;;;4960978;28;20058;-68
2024/03/12 08:30:09;;;;;;;64.15;36.75;;;7.80;99.90;;;;;;4958760;28;20043;-70
2024/03/12 08:32:36;;;;;;;61.53;37.05;;;7.80;99.90;;;;;;4971844;28;20046;-69
2024/03/12 08:35:05;;;;;;;58.13;35.85;;;7.80;99.90;;;;;;4963556;28;20618;-70
2024/03/12 08:37:32;;;;;;;65.75;37.22;;;7.90;99.90;;;;;;4958622;28;20063;-70
2024/03/12 08:40:07;;;;;;;60.90;35.08;;;7.90;99.90;;;;;;4974146;28;20085;-69
2024/03/12 08:42:35;;;;;;;59.75;35.03;;;7.80;99.90;;;;;;4972271;28;20686;-69
2024/03/12 08:45:16;;;;;;;65.75;36.45;;;7.80;99.90;;;;;;4968870;28;20042;-70
2024/03/12 08:47:48;;;;;;;64.32;34.88;;;7.80;99.90;;;;;;4969616;28;20042;-69
2024/03/12 08:50:17;;;;;;;66.80;35.25;;;7.70;99.90;;;;;;4971941;28;20053;-70
2024/03/12 08:52:44;;;;;;;65.50;34.13;;;7.60;99.90;;;;;;4972781;28;20050;-69
2024/03/12 08:55:11;;;;;;;53.65;30.75;;;7.60;99.90;;;;;;4978920;28;20133;-70
2024/03/12 08:57:38;;;;;;;60.55;30.85;;;7.50;99.90;;;;;;4952956;28;20053;-69
2024/03/12 09:00:11;;;;;;;57.30;29.27;;;7.40;99.90;;;;;;4970088;28;20202;-70
2024/03/12 09:02:41;;;;;;;56.63;28.55;;;7.40;99.90;;;;;;4965508;28;20058;-69
2024/03/12 09:05:09;;;;;;;61.42;29.77;;;7.40;99.90;;;;;;4969768;28;20439;-70
2024/03/12 09:07:39;;;;;;;52.25;26.98;;;7.40;99.90;;;;;;4968973;28;20508;-70
2024/03/12 09:10:11;;;;;;;55.03;29.63;;;7.20;99.90;;;;;;4974672;28;20038;-69
2024/03/12 09:12:40;;;;;;;55.50;28.27;;;7.30;99.90;;;;;;4969884;28;20050;-70
2024/03/12 09:15:09;;;;;;;56.65;26.55;;;7.30;99.90;;;;;;4972018;28;20109;-69
2024/03/12 09:17:37;;;;;;;59.03;29.83;;;7.20;99.90;;;;;;4969403;28;20048;-69
2024/03/12 09:20:06;;;;;;;53.88;29.02;;;7.20;99.90;;;;;;4976573;28;20112;-68
2024/03/12 09:22:33;;;;;;;49.58;26.45;;;7.20;99.90;;;;;;4982097;28;20046;-68
2024/03/12 09:25:01;;;;;;;50.33;27.50;;;7.20;99.90;;;;;;4988315;28;20050;-71
2024/03/12 09:27:30;;;;;;;58.85;27.80;;;7.20;99.90;;;;;;4971678;28;20386;-69
2024/03/12 09:29:57;;;;;;;51.40;25.77;;;7.20;99.90;;;;;;4967329;28;20042;-70
2024/03/12 09:32:24;;;;;;;52.00;26.48;;;7.20;99.90;;;;;;4969331;28;20512;-68
2024/03/12 09:34:52;;;;;;;54.08;26.10;;;7.20;99.90;;;;;;4953316;28;20046;-69
2024/03/12 09:37:19;;;;;;;51.60;25.98;;;7.20;99.90;;;;;;4985920;28;20128;-69
2024/03/12 09:39:51;;;;;;;56.45;29.17;;;7.20;99.90;;;;;;4972788;28;20062;-69
2024/03/12 09:42:21;;;;;;;53.55;26.77;;;7.20;99.90;;;;;;4989318;28;20412;-69
2024/03/12 09:44:51;;;;;;;55.05;28.20;;;7.20;99.90;;;;;;4965719;28;20042;-69
2024/03/12 09:47:20;;;;;;;57.42;28.38;;;7.20;99.90;;;;;;4955594;28;20125;-69
2024/03/12 09:49:48;;;;;;;52.17;27.75;;;7.20;99.90;;;;;;4966783;28;20062;-70
2024/03/12 09:52:16;;;;;;;55.15;29.33;;;7.20;99.90;;;;;;4955339;28;20058;-70
2024/03/12 09:54:43;;;;;;;49.92;27.30;;;7.20;99.90;;;;;;4956652;28;20058;-68
2024/03/12 09:57:10;;;;;;;88.82;43.47;;;7.20;99.90;;;;;;4966458;28;20660;-70
2024/03/12 09:59:40;;;;;;;57.00;31.15;;;7.20;99.90;;;;;;4969182;28;20101;-68
2024/03/12 10:02:09;;;;;;;51.22;26.80;;;7.20;99.90;;;;;;4965079;28;20046;-69
2024/03/12 10:04:37;;;;;;;53.25;27.85;;;7.20;99.90;;;;;;4961429;28;20058;-69
2024/03/12 10:07:05;;;;;;;63.08;27.98;;;7.20;99.90;;;;;;4952601;28;20136;-69
2024/03/12 10:09:32;;;;;;;48.20;24.80;;;7.20;99.90;;;;;;4958116;28;20132;-69
2024/03/12 10:12:03;;;;;;;51.88;28.40;;;7.30;99.90;;;;;;4967884;28;20108;-69
2024/03/12 10:14:35;;;;;;;48.22;28.00;;;7.30;99.90;;;;;;4977970;28;20049;-70
2024/03/12 10:17:13;;;;;;;49.80;29.13;;;7.40;99.90;;;;;;4970299;28;20073;-70
2024/03/12 10:19:51;;;;;;;47.85;27.55;;;7.40;99.90;;;;;;4967759;28;20555;-69
2024/03/12 10:22:20;;;;;;;42.95;27.65;;;7.60;99.90;;;;;;4975122;28;20061;-70
2024/03/12 10:24:49;;;;;;;44.33;26.55;;;7.60;99.90;;;;;;4961611;28;20449;-70
2024/03/12 10:27:18;;;;;;;41.20;27.15;;;7.70;99.90;;;;;;4958232;28;20922;-70
2024/03/12 10:29:44;;;;;;;41.85;27.38;;;7.70;99.90;;;;;;4957492;28;20672;-70
2024/03/12 10:32:19;;;;;;;40.45;28.40;;;7.80;99.90;;;;;;4962783;28;21516;-69
2024/03/12 10:34:47;;;;;;;;;;;7.70;99.90;;;;;;4943985;28;20411;-68
2024/03/12 10:37:32;;;;;;;37.90;28.73;;;7.80;99.90;;;;;;4962956;28;19929;-70
2024/03/12 10:40:15;;;;;;;;;;;7.90;99.90;;;;;;4967245;28;20070;-69
2024/03/12 10:42:53;;;;;;;41.25;28.38;;;8.00;99.90;;;;;;4959581;28;19925;-69
2024/03/12 10:45:21;;;;;;;44.10;30.20;;;7.90;99.90;;;;;;4970955;28;20100;-69
2024/03/12 10:47:49;;;;;;;39.58;29.77;;;7.90;99.90;;;;;;4971472;28;20419;-69
2024/03/12 10:50:16;;;;;;;37.95;30.48;;;8.00;99.90;;;;;;4971760;28;20751;-71
2024/03/12 10:52:50;;;;;;;37.85;31.00;;;7.90;99.90;;;;;;4967332;28;20435;-69
2024/03/12 10:55:23;;;;;;;39.63;32.72;;;7.90;99.90;;;;;;4971837;28;20047;-70
2024/03/12 10:57:53;;;;;;;36.17;32.28;;;7.80;99.90;;;;;;4969571;28;20054;-68
2024/03/12 11:00:25;;;;;;;41.08;33.03;;;7.80;99.90;;;;;;4966113;28;20499;-69
2024/03/12 11:02:53;;;;;;;38.47;31.10;;;7.80;99.90;;;;;;4969173;28;20058;-70
2024/03/12 11:05:27;;;;;;;40.63;32.33;;;7.80;99.90;;;;;;4961012;28;20124;-70
2024/03/12 11:07:57;;;;;;;43.95;32.20;;;7.80;99.90;;;;;;4969986;28;20093;-70
2024/03/12 11:10:32;;;;;;;43.80;31.42;;;7.80;99.90;;;;;;4975836;28;20046;-70
2024/03/12 11:13:01;;;;;;;44.97;32.38;;;7.80;99.90;;;;;;4951917;28;20052;-70
2024/03/12 11:15:28;;;;;;;46.95;31.45;;;7.70;99.90;;;;;;4978884;28;20136;-69
2024/03/12 11:17:56;;;;;;;43.20;31.67;;;7.70;99.90;;;;;;4970396;28;21327;-69
2024/03/12 11:20:25;;;;;;;45.95;31.83;;;7.60;99.90;;;;;;4968750;28;20046;-70
2024/03/12 11:23:00;;;;;;;37.60;27.77;;;7.60;99.90;;;;;;4950106;28;20055;-70
2024/03/12 11:25:45;;;;;;;44.15;30.92;;;7.50;99.90;;;;;;4964204;28;20061;-70
2024/03/12 11:28:25;;;;;;;35.75;27.02;;;7.50;99.90;;;;;;4969431;28;20053;-70
2024/03/12 11:30:55;;;;;;;35.33;25.80;;;7.60;99.90;;;;;;4968876;28;20047;-70
2024/03/12 11:33:41;;;;;;;38.72;29.58;;;7.50;99.90;;;;;;4969725;28;20089;-69
2024/03/12 11:36:20;;;;;;;35.35;27.05;;;7.50;99.90;;;;;;4969150;28;20237;-70
2024/03/12 11:38:51;;;;;;;35.38;26.55;;;7.50;99.90;;;;;;4976149;28;20044;-69
2024/03/12 11:41:19;;;;;;;35.45;26.67;;;7.50;99.90;;;;;;4975904;28;20050;-69
2024/03/12 11:43:47;;;;;;;37.53;26.27;;;7.40;99.90;;;;;;4968760;28;20150;-68
2024/03/12 11:46:39;;;;;;;33.92;23.95;;;7.40;99.90;;;;;;4967155;28;20046;-68
2024/03/12 11:49:32;;;;;;;36.00;26.92;;;7.50;99.90;;;;;;4969559;28;20139;-69
2024/03/12 11:52:01;;;;;;;35.28;24.40;;;7.40;99.90;;;;;;4965263;28;20390;-69
2024/03/12 11:54:44;;;;;;;42.05;23.70;;;7.50;99.90;;;;;;4982645;28;20145;-70
2024/03/12 11:57:29;;;;;;;38.60;26.20;;;7.50;99.90;;;;;;4968797;28;20060;-68
2024/03/12 11:59:57;;;;;;;;;;;7.50;99.90;;;;;;4971451;28;20046;-70
2024/03/12 12:02:26;;;;;;;38.40;26.20;;;7.50;99.90;;;;;;4967586;28;20403;-69
2024/03/12 12:04:55;;;;;;;31.98;24.75;;;7.60;99.90;;;;;;4956773;28;20535;-69
2024/03/12 12:07:24;;;;;;;39.33;28.67;;;7.60;99.90;;;;;;4963910;28;20725;-70
2024/03/12 12:09:52;;;;;;;37.08;27.63;;;7.60;99.90;;;;;;4982095;28;20046;-70
2024/03/12 12:12:20;;;;;;;40.90;29.23;;;7.70;99.90;;;;;;4965261;28;20112;-70
2024/03/12 12:14:47;;;;;;;35.50;28.13;;;7.80;99.90;;;;;;4963726;28;20153;-70
2024/03/12 12:17:23;;;;;;;38.08;28.95;;;7.80;99.90;;;;;;4970503;28;20112;-70
2024/03/12 12:20:16;;;;;;;40.22;29.92;;;7.70;99.90;;;;;;4973216;28;20202;-71
2024/03/12 12:22:45;;;;;;;45.28;28.20;;;7.70;99.90;;;;;;4972381;28;20038;-70
2024/03/12 12:25:18;;;;;;;41.38;30.25;;;7.70;99.90;;;;;;4967999;28;20038;-69
2024/03/12 12:27:46;;;;;;;39.28;28.65;;;7.70;99.90;;;;;;4972573;28;20046;-68
2024/03/12 12:30:17;;;;;;;42.90;30.67;;;7.70;99.90;;;;;;4966908;28;20042;-70
2024/03/12 12:32:45;;;;;;;48.75;33.00;;;7.60;99.90;;;;;;4955300;28;20523;-69
2024/03/12 12:35:14;;;;;;;46.22;30.98;;;7.60;99.90;;;;;;4962901;28;20083;-69
2024/03/12 12:37:45;;;;;;;49.65;34.88;;;7.50;99.90;;;;;;4975885;28;20050;-70
2024/03/12 12:40:17;;;;;;;47.72;31.77;;;7.50;99.90;;;;;;4973374;28;20053;-70
2024/03/12 12:42:45;;;;;;;57.17;35.83;;;7.50;99.90;;;;;;4975062;28;20062;-70
2024/03/12 12:45:16;;;;;;;53.83;33.08;;;7.50;99.90;;;;;;4967425;28;20057;-70
2024/03/12 12:47:49;;;;;;;53.65;34.13;;;7.50;99.90;;;;;;4974654;28;20076;-67
2024/03/12 12:50:28;;;;;;;48.85;30.95;;;7.40;99.90;;;;;;4974085;28;20628;-69
2024/03/12 12:53:01;;;;;;;48.13;30.77;;;7.40;99.90;;;;;;4971163;28;20158;-69
2024/03/12 12:55:31;;;;;;;43.83;26.75;;;7.30;99.90;;;;;;4973280;28;20135;-70
2024/03/12 12:58:01;;;;;;;51.95;28.88;;;7.30;99.90;;;;;;4973389;28;20723;-70
2024/03/12 13:00:35;;;;;;;52.20;30.58;;;7.30;99.90;;;;;;4971983;28;20062;-69